createdAt,value
2024-05-09T00:00:35.549Z,100.00
2024-05-09T00:03:07.399Z,100.00
2024-05-09T00:05:34.458Z,100.00
2024-05-09T00:08:01.382Z,100.00
2024-05-09T00:10:35.448Z,100.00
2024-05-09T00:13:04.879Z,100.00
2024-05-09T00:15:33.232Z,100.00
2024-05-09T00:18:00.134Z,100.00
2024-05-09T00:20:35.113Z,100.00
2024-05-09T00:23:06.868Z,100.00
2024-05-09T00:25:33.936Z,100.00
2024-05-09T00:28:00.546Z,100.00
2024-05-09T00:30:33.649Z,100.00
2024-05-09T00:33:03.179Z,100.00
2024-05-09T00:35:30.434Z,100.00
2024-05-09T00:37:57.158Z,100.00
2024-05-09T00:40:34.801Z,100.00
2024-05-09T00:43:06.308Z,100.00
2024-05-09T00:45:34.368Z,100.00
2024-05-09T00:48:03.543Z,100.00
2024-05-09T00:50:36.332Z,100.00
2024-05-09T00:53:06.106Z,100.00
2024-05-09T00:55:34.793Z,100.00
2024-05-09T00:58:02.771Z,100.00
2024-05-09T01:00:37.776Z,100.00
2024-05-09T01:03:07.322Z,100.00
2024-05-09T01:05:35.031Z,100.00
2024-05-09T01:08:02.986Z,100.00
2024-05-09T01:10:34.455Z,100.00
2024-05-09T01:13:03.528Z,100.00
2024-05-09T01:15:30.352Z,100.00
2024-05-09T01:17:58.247Z,100.00
2024-05-09T01:20:36.539Z,100.00
2024-05-09T01:23:09.596Z,100.00
2024-05-09T01:25:36.646Z,100.00
2024-05-09T01:28:03.303Z,100.00
2024-05-09T01:30:34.797Z,100.00
2024-05-09T01:33:04.631Z,100.00
2024-05-09T01:35:31.932Z,100.00
2024-05-09T01:37:58.767Z,100.00
2024-05-09T01:40:35.405Z,100.00
2024-05-09T01:43:04.993Z,100.00
2024-05-09T01:45:31.660Z,100.00
2024-05-09T01:47:58.831Z,100.00
2024-05-09T01:50:36.992Z,100.00
2024-05-09T01:53:07.218Z,100.00
2024-05-09T01:55:33.823Z,100.00
2024-05-09T01:58:00.358Z,100.00
2024-05-09T02:00:37.643Z,100.00
2024-05-09T02:03:10.044Z,100.00
2024-05-09T02:05:37.689Z,100.00
2024-05-09T02:08:05.304Z,100.00
2024-05-09T02:10:33.054Z,100.00
2024-05-09T02:13:00.121Z,100.00
2024-05-09T02:15:26.761Z,100.00
2024-05-09T02:17:53.558Z,100.00
2024-05-09T02:20:30.072Z,100.00
2024-05-09T02:23:03.821Z,100.00
2024-05-09T02:25:30.817Z,100.00
2024-05-09T02:27:57.340Z,100.00
2024-05-09T02:30:31.022Z,100.00
2024-05-09T02:33:05.856Z,100.00
2024-05-09T02:35:32.803Z,100.00
2024-05-09T02:37:59.770Z,100.00
2024-05-09T02:40:35.456Z,100.00
2024-05-09T02:43:05.180Z,100.00
2024-05-09T02:45:31.890Z,100.00
2024-05-09T02:47:58.811Z,100.00
2024-05-09T02:50:33.765Z,100.00
2024-05-09T02:53:05.101Z,100.00
2024-05-09T02:55:31.768Z,100.00
2024-05-09T02:57:58.323Z,100.00
2024-05-09T03:00:34.223Z,100.00
2024-05-09T03:03:10.465Z,100.00
2024-05-09T03:05:39.633Z,100.00
2024-05-09T03:08:06.764Z,100.00
2024-05-09T03:10:36.580Z,100.00
2024-05-09T03:13:08.919Z,100.00
2024-05-09T03:15:35.648Z,100.00
2024-05-09T03:18:03.085Z,100.00
2024-05-09T03:20:34.224Z,100.00
2024-05-09T03:23:03.271Z,100.00
2024-05-09T03:25:30.119Z,100.00
2024-05-09T03:27:56.817Z,100.00
2024-05-09T03:30:35.938Z,100.00
2024-05-09T03:33:15.542Z,100.00
2024-05-09T03:35:46.149Z,100.00
2024-05-09T03:38:13.010Z,100.00
2024-05-09T03:40:47.243Z,100.00
2024-05-09T03:43:14.284Z,100.00
2024-05-09T03:45:42.331Z,100.00
2024-05-09T03:48:09.129Z,100.00
2024-05-09T03:50:36.886Z,100.00
2024-05-09T03:53:04.474Z,100.00
2024-05-09T03:55:31.330Z,100.00
2024-05-09T03:57:58.080Z,100.00
2024-05-09T04:00:31.474Z,100.00
2024-05-09T04:03:05.537Z,100.00
2024-05-09T04:05:33.261Z,100.00
2024-05-09T04:08:00.115Z,100.00
2024-05-09T04:10:32.833Z,100.00
2024-05-09T04:13:01.203Z,100.00
2024-05-09T04:15:27.827Z,100.00
2024-05-09T04:17:54.571Z,100.00
2024-05-09T04:20:32.533Z,100.00
2024-05-09T04:23:10.690Z,100.00
2024-05-09T04:25:37.836Z,100.00
2024-05-09T04:28:05.333Z,100.00
2024-05-09T04:30:38.016Z,100.00
2024-05-09T04:33:09.161Z,100.00
2024-05-09T04:35:38.641Z,100.00
2024-05-09T04:38:05.729Z,100.00
2024-05-09T04:40:35.668Z,100.00
2024-05-09T04:43:05.306Z,100.00
2024-05-09T04:45:32.203Z,100.00
2024-05-09T04:47:59.070Z,100.00
2024-05-09T04:50:35.221Z,100.00
2024-05-09T04:53:05.107Z,100.00
2024-05-09T04:55:32.542Z,100.00
2024-05-09T04:57:59.101Z,100.00
2024-05-09T05:00:34.477Z,100.00
2024-05-09T05:03:06.982Z,100.00
2024-05-09T05:05:37.525Z,100.00
2024-05-09T05:08:04.603Z,100.00
2024-05-09T05:10:36.038Z,100.00
2024-05-09T05:13:17.691Z,100.00
2024-05-09T05:15:55.946Z,100.00
2024-05-09T05:18:23.949Z,100.00
2024-05-09T05:20:50.809Z,100.00
2024-05-09T05:23:19.881Z,100.00
2024-05-09T05:25:54.193Z,100.00
2024-05-09T05:28:22.034Z,100.00
2024-05-09T05:30:48.884Z,100.00
2024-05-09T05:33:18.412Z,100.00
2024-05-09T05:35:45.498Z,100.00
2024-05-09T05:38:12.190Z,100.00
2024-05-09T05:40:40.181Z,100.00
2024-05-09T05:43:11.013Z,100.00
2024-05-09T05:45:38.459Z,100.00
2024-05-09T05:48:06.967Z,100.00
2024-05-09T05:50:36.916Z,100.00
2024-05-09T05:53:06.787Z,100.00
2024-05-09T05:55:33.735Z,100.00
2024-05-09T05:58:01.794Z,100.00
2024-05-09T06:00:34.840Z,100.00
2024-05-09T06:03:05.411Z,100.00
2024-05-09T06:05:32.751Z,100.00
2024-05-09T06:07:59.565Z,100.00
2024-05-09T06:10:34.761Z,100.00
2024-05-09T06:13:05.426Z,100.00
2024-05-09T06:15:32.137Z,99.45
2024-05-09T06:17:59.250Z,97.86
2024-05-09T06:20:34.637Z,97.86
2024-05-09T06:23:04.134Z,94.29
2024-05-09T06:25:30.768Z,98.46
2024-05-09T06:27:57.309Z,95.60
2024-05-09T06:30:30.437Z,92.65
2024-05-09T06:33:05.688Z,87.63
2024-05-09T06:35:33.034Z,90.46
2024-05-09T06:37:59.928Z,89.59
2024-05-09T06:40:35.917Z,84.38
2024-05-09T06:43:05.287Z,81.88
2024-05-09T06:45:31.828Z,83.24
2024-05-09T06:47:58.555Z,85.12
2024-05-09T06:50:28.481Z,80.91
2024-05-09T06:53:01.981Z,82.22
2024-05-09T06:55:28.711Z,82.40
2024-05-09T06:57:55.268Z,82.24
2024-05-09T07:00:27.746Z,76.57
2024-05-09T07:03:05.732Z,85.99
2024-05-09T07:05:33.369Z,80.95
2024-05-09T07:08:00.180Z,77.74
2024-05-09T07:10:32.874Z,79.27
2024-05-09T07:13:01.933Z,75.11
2024-05-09T07:15:28.837Z,81.69
2024-05-09T07:17:55.674Z,72.94
2024-05-09T07:20:31.734Z,75.70
2024-05-09T07:23:02.525Z,72.07
2024-05-09T07:25:29.379Z,72.10
2024-05-09T07:27:56.030Z,74.64
2024-05-09T07:30:27.738Z,70.67
2024-05-09T07:33:00.179Z,67.63
2024-05-09T07:35:27.251Z,66.33
2024-05-09T07:37:54.046Z,71.80
2024-05-09T07:40:29.044Z,72.50
2024-05-09T07:43:14.446Z,68.59
2024-05-09T07:45:50.686Z,68.99
2024-05-09T07:52:37.970Z,72.94
2024-05-09T07:53:45.677Z,69.67
2024-05-09T07:56:16.150Z,68.54
2024-05-09T07:58:43.652Z,75.06
2024-05-09T08:01:10.256Z,64.04
2024-05-09T08:03:38.184Z,64.92
2024-05-09T08:06:05.076Z,63.25
2024-05-09T08:08:31.612Z,62.34
2024-05-09T08:10:58.171Z,64.15
2024-05-09T08:13:24.732Z,60.39
2024-05-09T08:15:52.432Z,59.34
2024-05-09T08:18:19.286Z,58.86
2024-05-09T08:20:48.770Z,61.22
2024-05-09T08:23:15.694Z,56.11
2024-05-09T08:25:42.279Z,56.36
2024-05-09T08:28:09.055Z,57.67
2024-05-09T08:30:37.530Z,58.51
2024-05-09T08:33:06.513Z,55.47
2024-05-09T08:35:34.448Z,57.87
2024-05-09T08:38:06.501Z,58.78
2024-05-09T08:40:36.197Z,54.40
2024-05-09T08:43:09.339Z,56.06
2024-05-09T08:45:38.906Z,55.51
2024-05-09T08:48:08.583Z,57.26
2024-05-09T08:50:40.407Z,52.62
2024-05-09T08:53:08.207Z,50.68
2024-05-09T08:55:39.420Z,51.89
2024-05-09T08:58:12.592Z,46.08
2024-05-09T09:00:41.966Z,44.62
2024-05-09T09:03:10.106Z,44.63
2024-05-09T09:05:38.508Z,42.58
2024-05-09T09:08:07.728Z,44.48
2024-05-09T09:10:35.237Z,41.40
2024-05-09T09:13:04.699Z,43.51
2024-05-09T09:15:31.918Z,40.47
2024-05-09T09:17:59.951Z,41.31
2024-05-09T09:20:34.211Z,42.33
2024-05-09T09:23:04.100Z,42.62
2024-05-09T09:25:30.988Z,43.48
2024-05-09T09:28:00.558Z,43.54
2024-05-09T09:30:35.160Z,40.85
2024-05-09T09:33:05.243Z,42.07
2024-05-09T09:35:32.721Z,37.83
2024-05-09T09:38:02.590Z,38.95
2024-05-09T09:40:36.182Z,38.98
2024-05-09T09:43:13.887Z,40.57
2024-05-09T09:45:43.385Z,42.05
2024-05-09T09:48:10.817Z,38.12
2024-05-09T09:50:37.824Z,41.91
2024-05-09T09:53:06.993Z,43.06
2024-05-09T09:55:33.560Z,40.39
2024-05-09T09:58:01.056Z,38.74
2024-05-09T10:00:32.930Z,41.80
2024-05-09T10:03:01.148Z,40.71
2024-05-09T10:05:28.865Z,43.97
2024-05-09T10:07:57.426Z,42.42
2024-05-09T10:10:31.819Z,41.57
2024-05-09T10:13:02.539Z,39.14
2024-05-09T10:15:29.317Z,40.27
2024-05-09T10:18:05.271Z,41.01
2024-05-09T10:21:01.071Z,40.38
2024-05-09T10:23:36.760Z,40.47
2024-05-09T10:26:05.408Z,41.28
2024-05-09T10:28:35.335Z,41.68
2024-05-09T10:31:13.326Z,43.53
2024-05-09T10:33:50.072Z,41.56
2024-05-09T10:36:22.242Z,39.89
2024-05-09T10:38:49.868Z,40.90
2024-05-09T10:41:17.581Z,42.41
2024-05-09T10:43:44.239Z,41.15
2024-05-09T10:46:11.517Z,38.72
2024-05-09T10:48:39.217Z,38.60
2024-05-09T10:51:06.058Z,38.23
2024-05-09T10:53:40.486Z,40.25
2024-05-09T10:56:07.058Z,39.86
2024-05-09T10:58:33.607Z,38.89
2024-05-09T11:01:02.347Z,39.38
2024-05-09T11:03:31.062Z,41.05
2024-05-09T11:05:58.031Z,39.97
2024-05-09T11:08:24.846Z,41.17
2024-05-09T11:10:54.336Z,42.03
2024-05-09T11:13:30.512Z,41.27
2024-05-09T11:15:57.706Z,41.65
2024-05-09T11:18:27.133Z,39.25
2024-05-09T11:20:56.496Z,40.17
2024-05-09T11:23:26.196Z,38.00
2024-05-09T11:25:54.531Z,39.42
2024-05-09T11:28:22.088Z,39.13
2024-05-09T11:30:50.344Z,40.76
2024-05-09T11:33:19.160Z,40.11
2024-05-09T11:35:46.846Z,39.53
2024-05-09T11:38:13.724Z,37.77
2024-05-09T11:40:40.553Z,39.32
2024-05-09T11:43:07.252Z,41.54
2024-05-09T11:45:33.951Z,41.27
2024-05-09T11:48:00.699Z,40.97
2024-05-09T11:50:32.797Z,41.10
2024-05-09T11:53:02.307Z,41.82
2024-05-09T11:55:29.108Z,39.70
2024-05-09T11:57:56.048Z,40.89
2024-05-09T12:00:33.669Z,41.70
2024-05-09T12:03:05.311Z,41.47
2024-05-09T12:05:32.623Z,40.75
2024-05-09T12:07:59.580Z,40.31
2024-05-09T12:10:32.423Z,39.92
2024-05-09T12:13:01.757Z,40.40
2024-05-09T12:15:28.442Z,38.12
2024-05-09T12:17:57.337Z,38.01
2024-05-09T12:20:33.067Z,37.82
2024-05-09T12:23:03.946Z,40.12
2024-05-09T12:25:30.625Z,41.16
2024-05-09T12:27:57.283Z,42.03
2024-05-09T12:30:32.818Z,41.80
2024-05-09T12:33:04.279Z,41.60
2024-05-09T12:35:31.230Z,40.58
2024-05-09T12:37:57.828Z,39.78
2024-05-09T12:40:34.165Z,41.15
2024-05-09T12:43:04.448Z,39.82
2024-05-09T12:45:31.358Z,41.51
2024-05-09T12:47:58.365Z,40.75
2024-05-09T12:50:31.707Z,42.22
2024-05-09T12:53:00.359Z,40.18
2024-05-09T12:55:28.119Z,40.98
2024-05-09T12:57:55.032Z,40.05
2024-05-09T13:00:28.149Z,40.76
2024-05-09T13:03:00.355Z,38.53
2024-05-09T13:05:27.392Z,40.28
2024-05-09T13:07:54.148Z,37.60
2024-05-09T13:10:29.008Z,39.60
2024-05-09T13:12:59.262Z,38.82
2024-05-09T13:15:25.968Z,40.27
2024-05-09T13:17:52.837Z,41.00
2024-05-09T13:20:28.870Z,42.01
2024-05-09T13:23:02.158Z,39.27
2024-05-09T13:25:29.816Z,39.82
2024-05-09T13:27:57.479Z,40.95
2024-05-09T13:30:30.012Z,39.16
2024-05-09T13:33:05.877Z,40.47
2024-05-09T13:35:34.470Z,42.64
2024-05-09T13:38:02.030Z,41.31
2024-05-09T13:40:33.655Z,42.10
2024-05-09T13:43:02.971Z,42.24
2024-05-09T13:45:29.850Z,42.57
2024-05-09T13:47:56.756Z,38.56
2024-05-09T13:50:31.538Z,39.60
2024-05-09T13:53:02.321Z,40.68
2024-05-09T13:55:28.956Z,39.86
2024-05-09T13:57:55.932Z,40.76
2024-05-09T14:00:37.570Z,38.98
2024-05-09T14:03:10.083Z,39.92
2024-05-09T14:05:37.032Z,41.16
2024-05-09T14:08:04.118Z,40.03
2024-05-09T14:10:32.008Z,40.17
2024-05-09T14:12:59.754Z,39.90
2024-05-09T14:15:26.410Z,39.55
2024-05-09T14:17:53.308Z,40.80
2024-05-09T14:20:29.907Z,40.44
2024-05-09T14:22:58.806Z,39.89
2024-05-09T14:25:28.487Z,38.61
2024-05-09T14:27:56.063Z,38.93
2024-05-09T14:30:30.560Z,38.85
2024-05-09T14:33:03.263Z,39.66
2024-05-09T14:35:29.977Z,39.50
2024-05-09T14:37:56.893Z,39.65
2024-05-09T14:40:36.194Z,39.57
2024-05-09T14:43:07.929Z,40.28
2024-05-09T14:45:34.860Z,41.18
2024-05-09T14:48:02.847Z,40.58
2024-05-09T14:50:35.839Z,40.50
2024-05-09T14:53:06.492Z,40.81
2024-05-09T14:55:35.884Z,40.02
2024-05-09T14:58:05.813Z,40.15
2024-05-09T15:00:35.950Z,42.31
2024-05-09T15:03:04.994Z,40.69
2024-05-09T15:05:31.727Z,41.35
2024-05-09T15:07:59.288Z,38.73
2024-05-09T15:10:33.966Z,39.51
2024-05-09T15:13:02.900Z,40.94
2024-05-09T15:15:29.958Z,41.45
2024-05-09T15:17:57.011Z,39.74
2024-05-09T15:20:31.642Z,39.84
2024-05-09T15:23:02.311Z,42.67
2024-05-09T15:25:29.248Z,40.73
2024-05-09T15:27:56.083Z,40.87
2024-05-09T15:32:52.374Z,39.74
2024-05-09T15:35:20.306Z,39.74
2024-05-09T15:37:48.453Z,39.97
2024-05-09T15:40:22.090Z,40.74
2024-05-09T15:42:57.709Z,40.68
2024-05-09T15:45:24.420Z,41.18
2024-05-09T15:47:51.051Z,40.60
2024-05-09T15:50:27.633Z,42.35
2024-05-09T15:52:59.207Z,40.62
2024-05-09T15:55:25.782Z,42.21
2024-05-09T15:57:52.405Z,41.65
2024-05-09T16:00:28.406Z,42.18
2024-05-09T16:03:00.988Z,40.56
2024-05-09T16:05:27.716Z,41.16
2024-05-09T16:07:54.431Z,40.92
2024-05-09T16:10:25.933Z,41.78
2024-05-09T16:12:58.504Z,42.40
2024-05-09T16:15:25.227Z,42.35
2024-05-09T16:17:51.944Z,42.88
2024-05-09T16:20:29.559Z,41.60
2024-05-09T16:23:04.930Z,42.70
2024-05-09T16:25:31.473Z,41.76
2024-05-09T16:27:58.244Z,41.62
2024-05-09T16:30:31.735Z,41.25
2024-05-09T16:33:02.454Z,41.17
2024-05-09T16:35:29.384Z,40.81
2024-05-09T16:37:56.028Z,41.50
2024-05-09T16:40:30.240Z,42.09
2024-05-09T16:43:04.636Z,41.65
2024-05-09T16:45:31.671Z,43.93
2024-05-09T16:47:59.745Z,42.92
2024-05-09T16:50:32.314Z,42.53
2024-05-09T16:53:01.079Z,42.70
2024-05-09T16:55:27.825Z,44.46
2024-05-09T16:57:55.432Z,43.46
2024-05-09T17:00:31.485Z,43.45
2024-05-09T17:03:06.800Z,43.53
2024-05-09T17:05:34.048Z,44.11
2024-05-09T17:08:01.263Z,44.13
2024-05-09T17:10:32.791Z,44.14
2024-05-09T17:13:02.119Z,44.06
2024-05-09T17:15:28.928Z,45.02
2024-05-09T17:17:55.991Z,44.97
2024-05-09T17:20:29.694Z,45.10
2024-05-09T17:23:02.318Z,44.61
2024-05-09T17:25:29.353Z,44.56
2024-05-09T17:27:56.654Z,45.79
2024-05-09T17:30:31.605Z,45.38
2024-05-09T17:33:03.147Z,45.97
2024-05-09T17:35:29.823Z,45.57
2024-05-09T17:37:56.827Z,45.35
2024-05-09T17:42:53.139Z,44.73
2024-05-09T17:45:20.602Z,45.16
2024-05-09T17:47:47.713Z,45.97
2024-05-09T17:50:21.003Z,45.43
2024-05-09T17:52:53.669Z,46.72
2024-05-09T17:55:20.419Z,46.29
2024-05-09T17:57:47.142Z,46.37
2024-05-09T18:00:17.457Z,46.48
2024-05-09T18:02:48.332Z,47.08
2024-05-09T18:05:15.043Z,47.32
2024-05-09T18:07:41.781Z,47.84
2024-05-09T18:10:19.004Z,47.92
2024-05-09T18:12:49.064Z,47.91
2024-05-09T18:15:15.669Z,47.79
2024-05-09T18:17:42.684Z,48.24
2024-05-09T18:20:14.144Z,49.11
2024-05-09T18:22:46.480Z,49.92
2024-05-09T18:25:13.236Z,51.28
2024-05-09T18:27:39.910Z,54.03
2024-05-09T18:30:11.659Z,56.43
2024-05-09T18:32:41.041Z,56.81
2024-05-09T18:35:07.719Z,58.61
2024-05-09T18:37:34.361Z,58.98
2024-05-09T18:40:01.049Z,58.76
2024-05-09T18:42:27.652Z,60.39
2024-05-09T18:44:54.215Z,60.69
2024-05-09T18:47:20.973Z,61.42
2024-05-09T18:49:47.707Z,61.63
2024-05-09T18:52:14.385Z,63.46
2024-05-09T18:54:41.107Z,64.42
2024-05-09T18:57:12.010Z,66.54
2024-05-09T18:59:38.637Z,67.63
2024-05-09T19:02:05.853Z,67.65
2024-05-09T19:04:32.639Z,69.51
2024-05-09T19:07:00.307Z,70.24
2024-05-09T19:09:26.908Z,71.10
2024-05-09T19:11:53.474Z,73.39
2024-05-09T19:14:20.304Z,74.33
2024-05-09T19:16:46.914Z,74.25
2024-05-09T19:19:15.077Z,75.22
2024-05-09T19:21:43.000Z,77.23
2024-05-09T19:24:09.687Z,78.91
2024-05-09T19:26:36.341Z,78.62
2024-05-09T19:29:02.879Z,79.91
2024-05-09T19:31:29.558Z,81.25
2024-05-09T19:33:56.246Z,82.93
2024-05-09T19:36:22.888Z,84.00
2024-05-09T19:38:51.392Z,83.58
2024-05-09T19:41:18.158Z,87.97
2024-05-09T19:43:44.711Z,86.99
2024-05-09T19:46:11.656Z,90.46
2024-05-09T19:48:38.434Z,89.84
2024-05-09T19:51:05.341Z,88.72
2024-05-09T19:53:31.939Z,90.09
2024-05-09T19:55:58.885Z,89.28
2024-05-09T19:58:25.648Z,89.35
2024-05-09T20:00:52.452Z,89.36
2024-05-09T20:03:19.270Z,91.25
2024-05-09T20:05:46.652Z,90.99
2024-05-09T20:08:13.978Z,91.64
2024-05-09T20:10:40.623Z,92.65
2024-05-09T20:13:08.334Z,91.77
2024-05-09T20:15:36.738Z,94.02
2024-05-09T20:18:04.413Z,94.04
2024-05-09T20:20:37.124Z,92.52
2024-05-09T20:23:07.785Z,92.95
2024-05-09T20:25:34.321Z,94.03
2024-05-09T20:28:01.137Z,94.94
2024-05-09T20:30:32.220Z,96.56
2024-05-09T20:33:02.956Z,96.56
2024-05-09T20:35:32.269Z,96.96
2024-05-09T20:37:59.525Z,100.00
2024-05-09T20:40:32.301Z,100.00
2024-05-09T20:43:02.602Z,100.00
2024-05-09T20:45:29.155Z,100.00
2024-05-09T20:47:56.108Z,100.00
2024-05-09T20:50:29.328Z,100.00
2024-05-09T20:53:05.146Z,100.00
2024-05-09T20:55:31.779Z,100.00
2024-05-09T20:57:58.690Z,100.00
2024-05-09T21:00:33.840Z,100.00
2024-05-09T21:03:06.529Z,100.00
2024-05-09T21:05:34.102Z,100.00
2024-05-09T21:08:01.034Z,100.00
2024-05-09T21:10:32.096Z,98.95
2024-05-09T21:13:00.176Z,98.98
2024-05-09T21:15:26.775Z,100.00
2024-05-09T21:17:53.394Z,100.00
2024-05-09T21:20:24.399Z,100.00
2024-05-09T21:22:57.560Z,100.00
2024-05-09T21:25:24.243Z,100.00
2024-05-09T21:27:51.185Z,99.99
2024-05-09T21:30:26.814Z,100.00
2024-05-09T21:32:59.613Z,100.00
2024-05-09T21:35:26.266Z,100.00
2024-05-09T21:37:52.834Z,100.00
2024-05-09T21:40:27.302Z,100.00
2024-05-09T21:43:00.755Z,100.00
2024-05-09T21:45:27.619Z,100.00
2024-05-09T21:47:54.285Z,100.00
2024-05-09T21:50:27.625Z,100.00
2024-05-09T21:52:58.753Z,100.00
2024-05-09T21:55:25.425Z,100.00
2024-05-09T21:57:52.103Z,100.00
2024-05-09T22:00:28.634Z,100.00
2024-05-09T22:03:02.361Z,100.00
2024-05-09T22:05:29.291Z,100.00
2024-05-09T22:07:56.546Z,100.00
2024-05-09T22:10:27.168Z,100.00
2024-05-09T22:12:59.924Z,100.00
2024-05-09T22:15:27.110Z,100.00
2024-05-09T22:17:54.008Z,100.00
2024-05-09T22:20:28.810Z,100.00
2024-05-09T22:23:02.508Z,100.00
2024-05-09T22:25:31.176Z,100.00
2024-05-09T22:27:58.694Z,100.00
2024-05-09T22:30:34.035Z,100.00
2024-05-09T22:33:05.362Z,100.00
2024-05-09T22:35:32.157Z,100.00
2024-05-09T22:37:58.854Z,100.00
2024-05-09T22:40:37.853Z,100.00
2024-05-09T22:43:12.316Z,100.00
2024-05-09T22:45:39.180Z,100.00
2024-05-09T22:48:06.342Z,100.00
2024-05-09T22:50:33.787Z,100.00
2024-05-09T22:53:00.688Z,100.00
2024-05-09T22:55:27.326Z,100.00
2024-05-09T22:57:53.941Z,100.00
2024-05-09T23:00:29.195Z,100.00
2024-05-09T23:03:02.472Z,100.00
2024-05-09T23:05:29.515Z,100.00
2024-05-09T23:07:56.318Z,100.00
2024-05-09T23:10:31.028Z,100.00
2024-05-09T23:13:02.266Z,100.00
2024-05-09T23:15:28.961Z,100.00
2024-05-09T23:17:55.787Z,100.00
2024-05-09T23:20:33.152Z,100.00
2024-05-09T23:23:04.707Z,100.00
2024-05-09T23:25:31.268Z,100.00
2024-05-09T23:27:57.886Z,100.00
2024-05-09T23:30:33.608Z,100.00
2024-05-09T23:33:05.962Z,100.00
2024-05-09T23:35:32.754Z,100.00
2024-05-09T23:37:59.447Z,100.00
2024-05-09T23:40:36.918Z,100.00
2024-05-09T23:43:07.070Z,100.00
2024-05-09T23:45:34.019Z,100.00
2024-05-09T23:48:01.059Z,100.00
2024-05-09T23:50:34.354Z,100.00
2024-05-09T23:53:04.264Z,100.00
2024-05-09T23:55:31.808Z,100.00
2024-05-09T23:57:58.775Z,100.00
